createdAt,value
2018-09-18T00:01:32.619Z,9.23
2018-09-18T00:04:01.347Z,9.83
2018-09-18T00:06:29.779Z,9.53
2018-09-18T00:08:58.025Z,9.10
2018-09-18T00:11:26.286Z,9.20
2018-09-18T00:13:54.600Z,9.03
2018-09-18T00:16:22.837Z,9.50
2018-09-18T00:18:51.022Z,8.97
2018-09-18T00:21:19.225Z,8.97
2018-09-18T00:23:47.533Z,8.43
2018-09-18T00:26:15.767Z,8.80
2018-09-18T00:28:44.269Z,9.70
2018-09-18T00:31:12.461Z,8.13
2018-09-18T00:33:40.673Z,8.53
2018-09-18T00:36:09.117Z,8.63
2018-09-18T00:38:37.430Z,8.87
2018-09-18T00:41:05.840Z,9.23
2018-09-18T00:43:34.287Z,8.80
2018-09-18T00:46:02.560Z,9.07
2018-09-18T00:48:30.882Z,8.80
2018-09-18T00:50:59.106Z,9.70
2018-09-18T00:53:27.658Z,9.57
2018-09-18T00:55:56.077Z,10.03
2018-09-18T00:58:24.437Z,9.30
2018-09-18T01:00:52.611Z,9.40
2018-09-18T01:03:21.236Z,9.87
2018-09-18T01:05:49.571Z,9.93
2018-09-18T01:08:18.240Z,9.20
2018-09-18T01:10:46.475Z,9.73
2018-09-18T01:13:14.912Z,9.77
2018-09-18T01:15:43.289Z,10.20
2018-09-18T01:18:11.934Z,9.57
2018-09-18T01:20:40.191Z,9.60
2018-09-18T01:23:08.645Z,8.80
2018-09-18T01:25:36.972Z,9.37
2018-09-18T01:28:05.323Z,9.17
2018-09-18T01:30:33.721Z,9.60
2018-09-18T01:33:02.050Z,9.20
2018-09-18T01:35:30.209Z,9.70
2018-09-18T01:37:58.822Z,8.60
2018-09-18T01:40:27.191Z,8.53
2018-09-18T01:42:55.316Z,8.33
2018-09-18T01:45:23.486Z,8.27
2018-09-18T01:47:51.710Z,8.93
2018-09-18T01:50:20.086Z,8.97
2018-09-18T01:52:48.287Z,8.80
2018-09-18T01:55:16.429Z,8.33
2018-09-18T01:57:44.994Z,7.80
2018-09-18T02:00:13.400Z,6.80
2018-09-18T02:02:41.680Z,7.80
2018-09-18T02:05:10.063Z,7.03
2018-09-18T02:07:38.490Z,7.37
2018-09-18T02:10:06.826Z,7.23
2018-09-18T02:12:35.408Z,7.10
2018-09-18T02:15:03.638Z,7.03
2018-09-18T02:17:31.960Z,7.30
2018-09-18T02:20:00.313Z,6.40
2018-09-18T02:22:28.497Z,6.70
2018-09-18T02:24:56.863Z,6.27
2018-09-18T02:27:25.097Z,6.00
2018-09-18T02:29:53.470Z,6.60
2018-09-18T02:32:21.819Z,6.20
2018-09-18T02:34:50.132Z,6.40
2018-09-18T02:37:18.811Z,6.37
2018-09-18T02:39:46.944Z,6.00
2018-09-18T02:42:15.205Z,6.20
2018-09-18T02:44:43.382Z,6.63
2018-09-18T02:47:11.676Z,6.33
2018-09-18T02:49:40.230Z,6.40
2018-09-18T02:52:08.723Z,7.03
2018-09-18T02:54:37.091Z,6.73
2018-09-18T02:57:05.451Z,6.93
2018-09-18T02:59:33.680Z,7.27
2018-09-18T03:02:02.287Z,6.77
2018-09-18T03:04:30.753Z,6.47
2018-09-18T03:06:58.895Z,7.03
2018-09-18T03:09:27.133Z,7.07
2018-09-18T03:11:55.289Z,6.47
2018-09-18T03:14:23.649Z,6.40
2018-09-18T03:16:51.834Z,6.57
2018-09-18T03:19:19.881Z,6.30
2018-09-18T03:21:48.116Z,6.43
2018-09-18T03:24:16.366Z,6.17
2018-09-18T03:26:44.732Z,6.60
2018-09-18T03:29:13.110Z,6.80
2018-09-18T03:31:41.534Z,6.77
2018-09-18T03:34:09.739Z,7.50
2018-09-18T03:36:38.230Z,6.57
2018-09-18T03:39:07.316Z,7.20
2018-09-18T03:41:35.719Z,7.10
2018-09-18T03:44:04.064Z,7.23
2018-09-18T03:46:32.199Z,7.30
2018-09-18T03:49:00.404Z,7.63
2018-09-18T03:51:28.617Z,7.47
2018-09-18T03:53:56.892Z,7.77
2018-09-18T03:56:25.284Z,7.87
2018-09-18T03:58:53.769Z,7.43
2018-09-18T04:01:21.932Z,7.87
2018-09-18T04:03:50.073Z,8.50
2018-09-18T04:06:18.247Z,8.10
2018-09-18T04:08:46.684Z,7.83
2018-09-18T04:11:14.888Z,7.53
2018-09-18T04:13:43.021Z,7.97
2018-09-18T04:16:11.257Z,7.10
2018-09-18T04:18:39.498Z,7.17
2018-09-18T04:21:07.785Z,7.23
2018-09-18T04:23:36.014Z,7.30
2018-09-18T04:26:04.185Z,6.83
2018-09-18T04:28:32.886Z,7.00
2018-09-18T04:31:01.129Z,6.87
2018-09-18T04:33:29.283Z,6.77
2018-09-18T04:35:57.286Z,6.43
2018-09-18T04:38:25.857Z,6.43
2018-09-18T04:40:53.991Z,6.40
2018-09-18T04:43:22.865Z,6.70
2018-09-18T04:45:51.381Z,6.67
2018-09-18T04:48:19.500Z,6.30
2018-09-18T04:50:47.947Z,6.57
2018-09-18T04:53:16.107Z,6.83
2018-09-18T04:55:44.420Z,7.77
2018-09-18T04:58:12.562Z,7.10
2018-09-18T05:00:40.709Z,7.47
2018-09-18T05:03:08.987Z,8.20
2018-09-18T05:05:37.304Z,7.60
2018-09-18T05:08:05.637Z,7.40
2018-09-18T05:10:33.816Z,7.67
2018-09-18T05:13:02.318Z,7.57
2018-09-18T05:15:30.654Z,7.67
2018-09-18T05:17:59.025Z,7.60
2018-09-18T05:20:27.355Z,8.10
2018-09-18T05:22:55.603Z,8.33
2018-09-18T05:25:23.731Z,7.93
2018-09-18T05:27:51.996Z,8.10
2018-09-18T05:30:20.431Z,7.97
2018-09-18T05:32:49.782Z,8.07
2018-09-18T05:35:18.008Z,8.93
2018-09-18T05:37:46.115Z,8.60
2018-09-18T05:40:14.315Z,8.90
2018-09-18T05:42:42.673Z,8.73
2018-09-18T05:45:11.006Z,8.90
2018-09-18T05:47:39.462Z,8.80
2018-09-18T05:50:07.810Z,9.40
2018-09-18T05:52:36.100Z,9.50
2018-09-18T05:55:04.796Z,8.90
2018-09-18T05:57:34.441Z,9.50
2018-09-18T06:00:02.740Z,9.67
2018-09-18T06:02:31.156Z,9.07
2018-09-18T06:04:59.382Z,8.67
2018-09-18T06:07:27.542Z,8.70
2018-09-18T06:09:55.993Z,8.47
2018-09-18T06:12:24.394Z,7.50
2018-09-18T06:14:52.692Z,7.80
2018-09-18T06:17:20.941Z,7.60
2018-09-18T06:19:49.170Z,7.77
2018-09-18T06:22:17.502Z,7.20
2018-09-18T06:24:45.723Z,7.83
2018-09-18T06:27:13.874Z,7.90
2018-09-18T06:29:42.542Z,7.70
2018-09-18T06:32:11.132Z,7.70
2018-09-18T06:34:39.930Z,7.17
2018-09-18T06:37:09.197Z,7.13
2018-09-18T06:39:37.484Z,7.43
2018-09-18T06:42:05.887Z,7.60
2018-09-18T06:44:34.167Z,7.47
2018-09-18T06:47:02.359Z,7.50
2018-09-18T06:49:30.555Z,7.47
2018-09-18T06:51:59.280Z,7.23
2018-09-18T06:54:27.479Z,7.60
2018-09-18T06:56:55.918Z,7.50
2018-09-18T06:59:24.368Z,7.90
2018-09-18T07:01:52.769Z,7.80
2018-09-18T07:04:21.208Z,8.33
2018-09-18T07:06:49.308Z,7.97
2018-09-18T07:09:17.772Z,8.63
2018-09-18T07:11:46.199Z,8.93
2018-09-18T07:14:14.369Z,8.47
2018-09-18T07:16:42.642Z,8.60
2018-09-18T07:19:10.865Z,8.70
2018-09-18T07:21:39.220Z,8.20
2018-09-18T07:24:07.422Z,8.83
2018-09-18T07:26:36.034Z,8.50
2018-09-18T07:29:04.170Z,8.90
2018-09-18T07:31:32.334Z,7.77
2018-09-18T07:34:00.779Z,8.60
2018-09-18T07:36:30.035Z,8.40
2018-09-18T07:38:58.226Z,8.30
2018-09-18T07:41:26.688Z,7.80
2018-09-18T07:43:55.007Z,8.03
2018-09-18T07:46:23.478Z,8.23
2018-09-18T07:48:52.222Z,7.77
2018-09-18T07:51:20.529Z,8.30
2018-09-18T07:53:48.689Z,8.40
2018-09-18T07:56:16.835Z,8.23
2018-09-18T07:58:44.960Z,8.17
2018-09-18T08:01:13.213Z,8.27
2018-09-18T08:03:41.678Z,8.10
2018-09-18T08:06:09.826Z,8.07
2018-09-18T08:08:37.970Z,8.00
2018-09-18T08:11:06.200Z,8.53
2018-09-18T08:13:34.477Z,7.53
2018-09-18T08:16:02.849Z,7.90
2018-09-18T08:18:30.963Z,7.87
2018-09-18T08:20:59.221Z,7.90
2018-09-18T08:23:27.594Z,7.77
2018-09-18T08:25:55.931Z,7.10
2018-09-18T08:28:24.308Z,7.40
2018-09-18T08:30:52.503Z,7.57
2018-09-18T08:33:21.156Z,7.57
2018-09-18T08:35:49.317Z,7.03
2018-09-18T08:38:17.556Z,6.83
2018-09-18T08:40:45.820Z,6.90
2018-09-18T08:43:14.038Z,7.10
2018-09-18T08:45:42.470Z,7.10
2018-09-18T08:48:10.607Z,6.90
2018-09-18T08:50:39.098Z,7.00
2018-09-18T08:53:07.360Z,6.63
2018-09-18T08:55:35.783Z,8.43
2018-09-18T08:58:04.277Z,7.43
2018-09-18T09:00:32.652Z,7.27
2018-09-18T09:03:00.953Z,7.10
2018-09-18T09:05:29.195Z,6.83
2018-09-18T09:07:57.785Z,6.70
2018-09-18T09:10:26.438Z,6.80
2018-09-18T09:12:54.674Z,6.73
2018-09-18T09:15:23.426Z,6.72
2018-09-18T09:17:51.586Z,6.25
2018-09-18T09:20:20.016Z,6.17
2018-09-18T09:22:48.421Z,5.97
2018-09-18T09:25:16.524Z,6.40
2018-09-18T09:27:45.358Z,6.10
2018-09-18T09:30:15.607Z,6.08
2018-09-18T09:32:45.587Z,6.30
2018-09-18T09:35:15.565Z,6.10
2018-09-18T09:37:45.365Z,6.03
2018-09-18T09:40:15.202Z,6.25
2018-09-18T09:42:45.106Z,6.50
2018-09-18T09:45:15.557Z,6.15
2018-09-18T09:47:45.368Z,6.80
2018-09-18T09:50:13.744Z,6.22
2018-09-18T09:52:42.076Z,6.62
2018-09-18T09:55:10.589Z,6.10
2018-09-18T09:57:39.154Z,6.10
2018-09-18T10:00:12.498Z,5.83
2018-09-18T10:02:46.985Z,6.20
2018-09-18T10:05:16.731Z,5.35
2018-09-18T10:07:45.286Z,5.55
2018-09-18T10:10:14.492Z,5.47
2018-09-18T10:12:42.750Z,5.50
2018-09-18T10:15:11.055Z,5.62
2018-09-18T10:17:39.551Z,5.22
2018-09-18T10:20:08.004Z,5.25
2018-09-18T10:22:36.215Z,4.95
2018-09-18T10:25:04.611Z,5.15
2018-09-18T10:27:33.087Z,5.15
2018-09-18T10:30:01.333Z,5.60
2018-09-18T10:32:29.636Z,5.42
2018-09-18T10:34:58.008Z,4.75
2018-09-18T10:37:26.333Z,4.92
2018-09-18T10:39:54.611Z,4.95
2018-09-18T10:42:22.776Z,5.12
2018-09-18T10:44:50.914Z,4.75
2018-09-18T10:47:19.242Z,5.10
2018-09-18T10:49:47.445Z,4.95
2018-09-18T10:52:15.837Z,4.87
2018-09-18T10:54:44.168Z,4.67
2018-09-18T10:57:12.495Z,5.30
2018-09-18T10:59:40.933Z,4.90
2018-09-18T11:02:09.226Z,4.80
2018-09-18T11:04:37.305Z,5.20
2018-09-18T11:07:06.182Z,5.65
2018-09-18T11:09:34.445Z,5.42
2018-09-18T11:12:02.789Z,5.70
2018-09-18T11:14:30.957Z,5.27
2018-09-18T11:16:59.181Z,5.10
2018-09-18T11:19:27.566Z,5.20
2018-09-18T11:21:55.796Z,5.63
2018-09-18T11:24:23.942Z,5.30
2018-09-18T11:26:52.248Z,5.30
2018-09-18T11:29:23.301Z,5.17
2018-09-18T11:31:51.803Z,5.03
2018-09-18T11:34:20.016Z,5.60
2018-09-18T11:36:48.439Z,4.97
2018-09-18T11:39:16.829Z,5.37
2018-09-18T11:41:45.104Z,4.60
2018-09-18T11:44:13.528Z,4.97
2018-09-18T11:46:41.943Z,5.20
2018-09-18T11:49:10.288Z,5.03
2018-09-18T11:51:38.945Z,5.00
2018-09-18T11:54:07.857Z,5.40
2018-09-18T11:56:36.058Z,4.67
2018-09-18T11:59:04.521Z,4.93
2018-09-18T12:01:32.727Z,5.03
2018-09-18T12:04:01.084Z,4.80
2018-09-18T12:06:29.369Z,5.20
2018-09-18T12:08:57.680Z,4.93
2018-09-18T12:11:25.877Z,5.00
2018-09-18T12:13:54.169Z,4.90
2018-09-18T12:16:22.349Z,4.83
2018-09-18T12:18:50.618Z,4.50
2018-09-18T12:21:18.793Z,4.90
2018-09-18T12:23:47.026Z,4.70
2018-09-18T12:26:15.270Z,4.77
2018-09-18T12:28:43.496Z,4.40
2018-09-18T12:31:11.922Z,4.80
2018-09-18T12:33:40.150Z,5.10
2018-09-18T12:36:08.833Z,5.20
2018-09-18T12:38:37.167Z,5.20
2018-09-18T12:41:05.473Z,5.00
2018-09-18T12:43:33.644Z,5.20
2018-09-18T12:46:01.963Z,5.30
2018-09-18T12:48:30.441Z,5.10
2018-09-18T12:50:59.027Z,5.13
2018-09-18T12:53:27.208Z,5.20
2018-09-18T12:55:55.412Z,5.30
2018-09-18T12:58:24.233Z,5.30
2018-09-18T13:00:52.475Z,5.47
2018-09-18T13:03:20.848Z,5.13
2018-09-18T13:05:49.541Z,5.20
2018-09-18T13:08:18.017Z,5.40
2018-09-18T13:10:46.223Z,5.13
2018-09-18T13:13:14.345Z,5.27
2018-09-18T13:15:42.801Z,5.30
2018-09-18T13:18:10.973Z,5.50
2018-09-18T13:20:39.142Z,5.27
2018-09-18T13:23:07.673Z,10.93
2018-09-18T13:25:36.286Z,4.93
2018-09-18T13:28:04.560Z,5.23
2018-09-18T13:30:32.961Z,5.30
2018-09-18T13:33:01.363Z,5.00
2018-09-18T13:35:29.595Z,5.00
2018-09-18T13:37:58.623Z,5.33
2018-09-18T13:40:26.772Z,5.50
2018-09-18T13:42:55.259Z,5.73
2018-09-18T13:45:24.131Z,5.17
2018-09-18T13:47:52.658Z,5.40
2018-09-18T13:50:21.222Z,5.20
2018-09-18T13:52:49.565Z,5.80
2018-09-18T13:55:18.294Z,5.50
2018-09-18T13:57:46.467Z,5.20
2018-09-18T14:00:15.272Z,5.50
2018-09-18T14:02:43.503Z,5.47
2018-09-18T14:05:11.681Z,6.00
2018-09-18T14:07:40.224Z,5.47
2018-09-18T14:10:10.950Z,5.40
2018-09-18T14:12:39.149Z,5.30
2018-09-18T14:15:07.386Z,5.70
2018-09-18T14:17:35.755Z,5.10
2018-09-18T14:20:04.679Z,5.27
2018-09-18T14:22:32.969Z,5.60
2018-09-18T14:25:01.423Z,5.03
2018-09-18T14:27:30.360Z,5.03
2018-09-18T14:29:58.512Z,5.17
2018-09-18T14:32:26.986Z,5.13
2018-09-18T14:34:55.460Z,4.87
2018-09-18T14:37:23.622Z,5.43
2018-09-18T14:39:51.994Z,5.47
2018-09-18T14:42:20.606Z,5.40
2018-09-18T14:44:48.843Z,5.53
2018-09-18T14:47:17.170Z,5.00
2018-09-18T14:49:45.573Z,5.27
2018-09-18T14:52:13.990Z,5.10
2018-09-18T14:54:42.119Z,5.27
2018-09-18T14:57:10.419Z,5.33
2018-09-18T14:59:38.683Z,4.63
2018-09-18T15:02:06.898Z,4.90
2018-09-18T15:04:35.037Z,5.13
2018-09-18T15:07:03.524Z,5.23
2018-09-18T15:09:31.748Z,5.67
2018-09-18T15:11:59.899Z,5.63
2018-09-18T15:14:28.273Z,5.20
2018-09-18T15:16:56.404Z,4.87
2018-09-18T15:19:24.745Z,5.30
2018-09-18T15:21:52.991Z,4.93
2018-09-18T15:24:21.207Z,5.20
2018-09-18T15:26:49.390Z,4.77
2018-09-18T15:29:17.581Z,5.23
2018-09-18T15:31:45.852Z,4.77
2018-09-18T15:34:14.129Z,5.47
2018-09-18T15:36:42.267Z,5.27
2018-09-18T15:39:10.490Z,4.93
2018-09-18T15:41:38.693Z,5.60
2018-09-18T15:44:07.093Z,8.07
2018-09-18T15:46:35.587Z,4.93
2018-09-18T15:49:04.171Z,5.70
2018-09-18T15:51:32.558Z,5.10
2018-09-18T15:54:01.366Z,4.80
2018-09-18T15:56:29.482Z,5.00
2018-09-18T15:58:58.207Z,4.83
2018-09-18T16:01:26.530Z,4.77
2018-09-18T16:03:55.928Z,4.83
2018-09-18T16:06:24.264Z,5.30
2018-09-18T16:08:52.491Z,5.13
2018-09-18T16:11:20.637Z,5.23
2018-09-18T16:13:48.865Z,5.13
2018-09-18T16:16:17.147Z,5.00
2018-09-18T16:18:45.318Z,5.27
2018-09-18T16:21:13.813Z,5.30
2018-09-18T16:23:42.078Z,4.60
2018-09-18T16:26:10.315Z,4.33
2018-09-18T16:28:38.576Z,4.60
2018-09-18T16:31:08.236Z,5.20
2018-09-18T16:33:36.523Z,5.00
2018-09-18T16:36:04.724Z,5.33
2018-09-18T16:38:33.632Z,4.93
2018-09-18T16:41:02.094Z,19.83
2018-09-18T16:43:30.657Z,5.70
2018-09-18T16:45:58.918Z,5.33
2018-09-18T16:48:32.082Z,5.00
2018-09-18T16:51:00.513Z,5.40
2018-09-18T16:53:29.121Z,5.50
2018-09-18T16:55:57.207Z,5.03
2018-09-18T16:58:30.678Z,6.57
2018-09-18T17:00:59.011Z,5.27
2018-09-18T17:03:27.458Z,5.63
2018-09-18T17:05:55.640Z,5.50
2018-09-18T17:08:23.750Z,6.00
2018-09-18T17:10:52.071Z,7.03
2018-09-18T17:13:20.364Z,6.30
2018-09-18T17:15:48.739Z,5.93
2018-09-18T17:18:17.078Z,6.10
2018-09-18T17:20:45.761Z,6.60
2018-09-18T17:23:13.989Z,5.80
2018-09-18T17:25:42.136Z,5.90
2018-09-18T17:28:11.111Z,5.70
2018-09-18T17:30:39.588Z,5.50
2018-09-18T17:33:07.867Z,6.20
2018-09-18T17:35:36.039Z,5.33
2018-09-18T17:38:04.283Z,5.60
2018-09-18T17:40:32.715Z,5.40
2018-09-18T17:43:00.930Z,5.10
2018-09-18T17:45:30.369Z,5.40
2018-09-18T17:47:58.699Z,5.70
2018-09-18T17:50:27.177Z,5.17
2018-09-18T17:52:55.454Z,4.90
2018-09-18T17:55:23.683Z,4.90
2018-09-18T17:57:51.964Z,4.40
2018-09-18T18:00:20.320Z,4.60
2018-09-18T18:02:48.716Z,4.57
2018-09-18T18:05:17.365Z,5.03
2018-09-18T18:07:45.986Z,4.90
2018-09-18T18:10:14.287Z,4.60
2018-09-18T18:12:42.654Z,4.50
2018-09-18T18:15:11.069Z,5.00
2018-09-18T18:17:39.340Z,4.77
2018-09-18T18:20:07.479Z,4.97
2018-09-18T18:22:35.626Z,4.40
2018-09-18T18:25:04.497Z,4.20
2018-09-18T18:27:33.078Z,4.80
2018-09-18T18:30:01.563Z,4.40
2018-09-18T18:32:29.964Z,4.30
2018-09-18T18:34:58.180Z,4.13
2018-09-18T18:37:26.650Z,4.43
2018-09-18T18:39:55.014Z,4.90
2018-09-18T18:42:23.551Z,4.20
2018-09-18T18:44:51.920Z,5.10
2018-09-18T18:47:20.252Z,5.03
2018-09-18T18:49:48.799Z,5.23
2018-09-18T18:52:16.953Z,6.67
2018-09-18T18:54:46.168Z,6.53
2018-09-18T18:57:14.538Z,6.40
2018-09-18T18:59:42.821Z,7.10
2018-09-18T19:02:11.078Z,6.93
2018-09-18T19:04:39.617Z,6.00
2018-09-18T19:07:08.359Z,5.40
2018-09-18T19:09:36.543Z,4.60
2018-09-18T19:12:05.217Z,4.03
2018-09-18T19:14:33.467Z,3.93
2018-09-18T19:17:02.445Z,3.67
2018-09-18T19:19:31.114Z,3.53
2018-09-18T19:21:59.358Z,3.27
2018-09-18T19:24:27.855Z,3.17
2018-09-18T19:26:56.248Z,3.10
2018-09-18T19:29:24.721Z,3.00
2018-09-18T19:31:53.222Z,2.93
2018-09-18T19:34:21.772Z,2.60
2018-09-18T19:36:50.010Z,2.90
2018-09-18T19:39:20.003Z,2.97
2018-09-18T19:41:55.433Z,2.90
2018-09-18T19:44:24.401Z,3.00
2018-09-18T19:46:53.073Z,2.83
2018-09-18T19:49:21.385Z,2.83
2018-09-18T19:51:49.813Z,3.10
2018-09-18T19:54:18.109Z,3.00
2018-09-18T19:56:46.588Z,3.40
2018-09-18T19:59:14.952Z,3.30
2018-09-18T20:01:43.403Z,2.97
2018-09-18T20:04:11.916Z,2.90
2018-09-18T20:06:40.694Z,2.97
2018-09-18T20:09:10.248Z,3.27
2018-09-18T20:11:38.791Z,3.20
2018-09-18T20:14:08.286Z,3.80
2018-09-18T20:16:37.335Z,3.70
2018-09-18T20:19:05.852Z,3.87
2018-09-18T20:21:34.564Z,4.40
2018-09-18T20:24:02.644Z,3.67
2018-09-18T20:26:31.100Z,3.60
2018-09-18T20:28:59.661Z,3.07
2018-09-18T20:31:28.416Z,3.40
2018-09-18T20:33:57.162Z,3.50
2018-09-18T20:36:26.447Z,3.50
2018-09-18T20:38:54.699Z,3.93
2018-09-18T20:41:23.008Z,4.07
2018-09-18T20:43:51.506Z,5.33
2018-09-18T20:46:20.008Z,4.07
2018-09-18T20:48:48.567Z,3.90
2018-09-18T20:51:17.314Z,3.80
2018-09-18T20:53:45.548Z,3.57
2018-09-18T20:56:15.521Z,3.63
2018-09-18T20:58:44.109Z,4.07
2018-09-18T21:01:13.078Z,2.60
2018-09-18T21:03:41.465Z,2.50
2018-09-18T21:06:10.322Z,2.13
2018-09-18T21:08:38.548Z,2.47
2018-09-18T21:11:06.955Z,2.23
2018-09-18T21:13:35.186Z,1.97
2018-09-18T21:16:03.989Z,2.20
2018-09-18T21:18:32.651Z,2.60
2018-09-18T21:21:00.971Z,2.50
2018-09-18T21:23:29.521Z,2.50
2018-09-18T21:26:01.957Z,2.33
2018-09-18T21:28:30.526Z,2.83
2018-09-18T21:30:58.905Z,2.80
2018-09-18T21:33:27.413Z,2.80
2018-09-18T21:35:55.901Z,2.67
2018-09-18T21:38:24.010Z,2.43
2018-09-18T21:40:52.305Z,2.70
2018-09-18T21:43:20.422Z,2.53
2018-09-18T21:45:49.011Z,2.77
2018-09-18T21:48:17.293Z,2.80
2018-09-18T21:50:45.930Z,2.40
2018-09-18T21:53:14.846Z,2.50
2018-09-18T21:55:43.744Z,2.60
2018-09-18T21:58:14.131Z,2.50
2018-09-18T22:00:42.886Z,2.60
2018-09-18T22:03:11.792Z,2.40
2018-09-18T22:05:40.375Z,2.57
2018-09-18T22:08:08.864Z,2.30
2018-09-18T22:10:37.268Z,2.50
2018-09-18T22:13:06.282Z,2.37
2018-09-18T22:15:35.022Z,2.47
2018-09-18T22:18:03.295Z,2.80
2018-09-18T22:20:31.472Z,2.70
2018-09-18T22:22:59.681Z,2.73
2018-09-18T22:25:28.216Z,2.90
2018-09-18T22:27:56.727Z,2.97
2018-09-18T22:30:25.325Z,2.90
2018-09-18T22:32:53.493Z,3.17
2018-09-18T22:35:22.044Z,3.03
2018-09-18T22:37:50.725Z,3.00
2018-09-18T22:40:18.843Z,2.90
2018-09-18T22:42:47.227Z,3.23
2018-09-18T22:45:15.470Z,2.90
2018-09-18T22:47:43.689Z,3.13
2018-09-18T22:50:11.962Z,3.17
2018-09-18T22:52:40.112Z,3.17
2018-09-18T22:55:08.447Z,3.10
2018-09-18T22:57:36.678Z,3.20
2018-09-18T23:00:06.283Z,3.67
2018-09-18T23:02:34.316Z,3.40
2018-09-18T23:05:02.374Z,3.50
2018-09-18T23:07:30.394Z,3.87
2018-09-18T23:09:58.307Z,4.53
2018-09-18T23:12:26.672Z,3.87
2018-09-18T23:14:55.156Z,4.00
2018-09-18T23:17:23.866Z,4.17
2018-09-18T23:19:52.128Z,4.33
2018-09-18T23:22:20.446Z,4.10
2018-09-18T23:24:48.723Z,4.37
2018-09-18T23:27:16.771Z,4.07
2018-09-18T23:29:44.982Z,4.30
2018-09-18T23:32:13.102Z,4.13
2018-09-18T23:34:41.195Z,5.00
2018-09-18T23:37:09.612Z,4.87
2018-09-18T23:39:37.757Z,4.60
2018-09-18T23:42:05.966Z,4.63
2018-09-18T23:44:34.179Z,4.60
2018-09-18T23:47:02.393Z,4.40
2018-09-18T23:49:30.658Z,4.40
2018-09-18T23:51:58.906Z,4.40
2018-09-18T23:54:28.010Z,4.50
2018-09-18T23:56:56.512Z,4.53
2018-09-18T23:59:24.648Z,4.33
